Main page
METAR-TAF:

METAR-TAF

Airports :

Nawabshah, Pakistan

Nawabshah Airport

latitude: 26-15N, longitude: 068-22E, elevation: 37 m

Current weather observation

The report was made 1 hour and 19 minutes ago, at 22:00 UTC
Wind 8 kt from the Southeast
Temperature 28°C
Humidity 70%
Pressure
haze

METAR: OPNH 232200Z 13008KT 5000M HZ NSC 28/22 Q.1000 NOSIG

Time: 04:19 (23:19 UTC)

Forecast

The report was made 7 hours and 49 minutes ago, at 15:30 UTC
Forecast valid from 23 at 18 UTC to 24 at 24 UTC
Wind 10 kt from the South
Visibility: 4000 m
Few clouds at a height of 3000 ft
Few clouds at a height of 10000 ft
haze
Becoming
from 24 at 05 UTC to 24 at 07 UTC
Wind 12 kt from the South
Visibility: 5000 m
Few clouds at a height of 3000 ft
Few clouds at a height of 10000 ft
haze

TAF: OPNH 231530Z 2318/2424 18010KT 4000 HZ FEW030 FEW100 BECMG 2405/2407 18012KT 5000 HZ FEW030 FEW100

Weather observations and forecasts of more than 4000 airports (METAR and TAF reports).

The available stations are represented by yellow and red dots on the map.

Hover mouse over dot to see the name of the station.

Then click to see weather observations and forecasts.

To change the map : click on the green buttons with a black cross to zoom in, on the green button with a dash to zoom out, or on the green arrows for adjacent maps.


METAR-TAF: